KCNO/CNO METAR and TAF weather

Enter ICAO airport designator
Station Type Date Time Source
KCNO METAR 2022/06/30 01:53 UTC NOAA

KCNO 300153Z 26012KT 10SM FEW160 30/13 A2995 RMK AO2 SLP135 T03000133


Station Type Date Time Source
KCNO Decoded METAR 2022/06/30 01:53 UTC NOAA

CHINO AIRPORT, CA, United States (KCNO) 33-58N 117-38W 207M
Jun 29, 2022 - 09:53 PM EDT / 2022.06.30 0153 UTC
Wind: from the W (260 degrees) at 14 MPH (12 KT):0
Visibility: 10 mile(s):0
Sky conditions: mostly clear
Temperature: 86.0 F (30.0 C)
Dew Point: 55.9 F (13.3 C)
Relative Humidity: 35%
Pressure (altimeter): 29.95 in. Hg (1014 hPa)
ob: KCNO 300153Z 26012KT 10SM FEW160 30/13 A2995 RMK AO2 SLP135 T03000133
cycle: 2

Station Type Date Time Source
KCNO TAF UTC NOAA

Error!

Example: see airport list